Time;durP1;ratioP1;P1;durP2;ratioP2;P2;SDS_P1;SDS_P2;PMS_P1;PMS_P2;Temp;Humidity;BMP_temperature;BMP_pressure;BME280_temperature;BME280_humidity;BME280_pressure;Samples;Min_cycle;Max_cycle;Signal;HPM_P1;HPM_P2
2022/03/27 00:01:49;;;;;;;23.43;14.07;;;14.00;56.00;;;;;;5035613;28;20213;-92
2022/03/27 00:04:19;;;;;;;25.60;13.70;;;14.00;56.00;;;;;;5049247;28;20224;-89
2022/03/27 00:06:47;;;;;;;26.23;14.23;;;13.90;55.80;;;;;;5048710;28;20235;-89
2022/03/27 00:09:19;;;;;;;26.87;14.57;;;13.90;55.70;;;;;;5050426;28;20742;-91
2022/03/27 00:11:46;;;;;;;26.33;14.33;;;13.90;55.90;;;;;;5052627;28;20720;-93
2022/03/27 00:14:13;;;;;;;19.27;12.67;;;13.90;55.70;;;;;;5054479;28;20284;-92
2022/03/27 00:16:40;;;;;;;24.00;14.03;;;13.90;55.60;;;;;;5052687;28;20279;-89
2022/03/27 00:19:09;;;;;;;26.17;14.37;;;13.90;55.60;;;;;;5049004;28;20208;-91
2022/03/27 00:21:38;;;;;;;23.27;13.43;;;14.00;55.90;;;;;;5054049;28;20287;-92
2022/03/27 00:24:06;;;;;;;28.60;14.37;;;13.90;55.80;;;;;;5052566;28;20307;-93
2022/03/27 00:26:35;;;;;;;20.13;12.43;;;13.90;55.60;;;;;;5053315;28;20236;-91
2022/03/27 00:29:01;;;;;;;24.57;13.80;;;13.90;55.80;;;;;;5055552;28;20208;-92
2022/03/27 00:31:35;;;;;;;20.67;12.60;;;13.90;55.90;;;;;;5055685;28;20243;-95
2022/03/27 00:34:04;;;;;;;22.43;12.27;;;13.90;55.80;;;;;;5056218;28;20201;-91
2022/03/27 00:36:32;;;;;;;23.63;13.50;;;13.80;55.80;;;;;;5055988;28;20761;-94
2022/03/27 00:39:01;;;;;;;28.53;13.80;;;13.80;55.80;;;;;;5051671;28;20291;-91
2022/03/27 00:41:30;;;;;;;21.73;12.60;;;13.80;55.90;;;;;;5043953;28;20657;-89
2022/03/27 00:43:58;;;;;;;25.10;14.40;;;13.80;55.90;;;;;;5041490;28;20591;-89
2022/03/27 00:46:26;;;;;;;27.60;14.13;;;13.80;55.80;;;;;;5050424;28;20306;-90
2022/03/27 00:48:54;;;;;;;21.10;12.70;;;13.80;56.10;;;;;;5047321;28;20208;-91
2022/03/27 00:51:21;;;;;;;27.20;14.03;;;13.70;55.60;;;;;;5050357;28;20549;-90
2022/03/27 00:53:48;;;;;;;22.50;12.80;;;13.70;55.60;;;;;;5051483;28;20239;-90
2022/03/27 00:56:15;;;;;;;23.27;12.67;;;13.70;55.70;;;;;;5051378;28;20836;-91
2022/03/27 00:58:44;;;;;;;23.60;13.03;;;13.70;55.80;;;;;;5055240;28;20309;-89
2022/03/27 01:01:23;;;;;;;31.33;15.03;;;13.60;55.70;;;;;;5050587;28;20294;-92
2022/03/27 01:03:53;;;;;;;25.87;14.47;;;13.60;56.10;;;;;;5052952;28;20204;-91
2022/03/27 01:06:29;;;;;;;22.80;13.30;;;13.60;55.80;;;;;;5051558;28;20258;-92
2022/03/27 01:11:43;;;;;;;25.93;13.40;;;13.60;55.90;;;;;;5043602;28;20203;-88
2022/03/27 01:14:10;;;;;;;24.30;12.83;;;13.50;56.00;;;;;;5047110;28;20224;-90
2022/03/27 01:16:42;;;;;;;21.33;12.47;;;13.50;56.30;;;;;;5050612;28;20197;-87
2022/03/27 01:19:10;;;;;;;23.77;12.93;;;13.50;56.60;;;;;;5052128;28;20196;-92
2022/03/27 01:21:40;;;;;;;20.23;11.53;;;13.40;56.30;;;;;;5054195;28;20205;-90
2022/03/27 01:24:09;;;;;;;24.97;13.33;;;13.40;56.50;;;;;;5051952;28;20232;-92
2022/03/27 01:26:36;;;;;;;22.77;12.70;;;13.40;56.40;;;;;;5054473;28;20263;-91
2022/03/27 01:29:04;;;;;;;21.53;11.90;;;13.40;56.50;;;;;;5046094;28;20302;-90
2022/03/27 01:31:31;;;;;;;26.33;13.40;;;13.30;56.60;;;;;;5045989;28;20306;-89
2022/03/27 01:33:58;;;;;;;17.70;10.87;;;13.30;56.70;;;;;;5051914;28;20220;-93
2022/03/27 01:36:28;;;;;;;19.03;12.40;;;13.30;56.90;;;;;;5043970;28;20219;-89
2022/03/27 01:38:57;;;;;;;20.87;11.50;;;13.30;57.10;;;;;;5049843;28;20214;-90
2022/03/27 01:41:26;;;;;;;19.13;11.60;;;13.30;57.10;;;;;;5044992;28;20200;-94
2022/03/27 01:43:53;;;;;;;20.87;11.70;;;13.20;57.10;;;;;;5046836;28;20306;-91
2022/03/27 01:46:20;;;;;;;19.27;10.67;;;13.20;57.20;;;;;;5048146;28;20223;-94
2022/03/27 01:48:48;;;;;;;24.80;12.73;;;13.20;57.10;;;;;;5047907;28;20720;-91
2022/03/27 01:51:15;;;;;;;22.33;12.23;;;13.10;56.90;;;;;;5047130;28;20727;-94
2022/03/27 01:53:42;;;;;;;18.50;11.00;;;13.10;57.10;;;;;;5041304;28;20729;-93
2022/03/27 01:56:12;;;;;;;18.77;10.70;;;13.10;57.10;;;;;;5050549;28;20228;-91
2022/03/27 01:58:40;;;;;;;19.87;11.63;;;13.10;57.30;;;;;;5051305;28;20230;-93
2022/03/27 02:01:09;;;;;;;16.60;10.83;;;13.10;57.30;;;;;;5042866;28;20320;-90
2022/03/27 02:03:36;;;;;;;20.43;11.80;;;13.10;57.60;;;;;;5050117;28;20299;-88
2022/03/27 02:06:05;;;;;;;24.43;12.23;;;13.10;57.50;;;;;;5048502;28;20296;-89
2022/03/27 02:08:34;;;;;;;21.30;10.70;;;13.00;57.70;;;;;;5047384;28;20200;-92
2022/03/27 02:11:02;;;;;;;21.60;11.00;;;13.00;57.80;;;;;;5047477;28;20207;-90
2022/03/27 02:13:31;;;;;;;19.53;11.37;;;13.00;57.60;;;;;;5042728;28;20219;-90
2022/03/27 02:15:58;;;;;;;24.73;11.77;;;12.90;57.90;;;;;;5045833;28;20261;-89
2022/03/27 02:18:27;;;;;;;22.63;11.97;;;12.90;58.10;;;;;;5047327;28;20258;-91
2022/03/27 02:20:55;;;;;;;23.40;11.87;;;12.90;58.30;;;;;;5045152;28;20694;-89
2022/03/27 02:23:22;;;;;;;25.20;11.70;;;12.90;58.20;;;;;;5047294;28;20981;-91
2022/03/27 02:25:50;;;;;;;23.77;11.73;;;12.90;58.20;;;;;;5047264;28;20267;-90
2022/03/27 02:28:18;;;;;;;21.30;10.67;;;12.90;58.30;;;;;;5043844;28;20223;-90
2022/03/27 02:30:47;;;;;;;23.07;11.10;;;12.80;58.40;;;;;;5043806;28;20275;-90
2022/03/27 02:33:14;;;;;;;23.97;11.33;;;12.80;58.40;;;;;;5049537;28;20240;-90
2022/03/27 02:35:42;;;;;;;17.33;9.60;;;12.80;58.40;;;;;;5049850;28;20203;-92
2022/03/27 02:38:10;;;;;;;17.57;10.03;;;12.80;58.30;;;;;;5049407;28;20235;-91
2022/03/27 02:40:38;;;;;;;20.43;10.73;;;12.80;58.40;;;;;;5047114;28;20204;-90
2022/03/27 02:43:06;;;;;;;23.07;10.90;;;12.80;58.50;;;;;;5059817;28;20211;-90
2022/03/27 02:45:34;;;;;;;21.47;11.53;;;12.80;58.40;;;;;;5045267;28;20560;-89
2022/03/27 02:48:03;;;;;;;25.70;11.80;;;12.70;58.40;;;;;;5048575;28;20234;-91
2022/03/27 02:50:31;;;;;;;24.87;11.77;;;12.70;58.40;;;;;;5047429;28;20279;-94
2022/03/27 02:52:59;;;;;;;29.67;13.07;;;12.70;58.60;;;;;;5041115;28;20188;-92
2022/03/27 02:55:26;;;;;;;26.70;11.93;;;12.70;58.70;;;;;;5044677;28;20223;-90
2022/03/27 02:57:57;;;;;;;20.50;9.93;;;12.70;58.90;;;;;;5053616;28;20279;-91
2022/03/27 03:00:25;;;;;;;28.37;12.07;;;12.70;59.30;;;;;;5053246;28;20254;-88
2022/03/27 03:02:54;;;;;;;21.63;10.93;;;12.60;59.00;;;;;;5050094;28;20291;-90
2022/03/27 03:05:23;;;;;;;24.33;12.00;;;12.60;59.30;;;;;;5053447;28;20200;-91
2022/03/27 03:07:52;;;;;;;20.00;10.80;;;12.60;59.70;;;;;;5039313;28;20314;-96
2022/03/27 03:10:20;;;;;;;25.13;12.17;;;12.60;60.10;;;;;;5054792;28;20657;-91
2022/03/27 03:12:47;;;;;;;26.83;11.93;;;12.50;60.20;;;;;;5050319;28;20610;-90
2022/03/27 03:15:15;;;;;;;26.33;11.93;;;12.50;60.40;;;;;;5053975;28;20242;-94
2022/03/27 03:17:44;;;;;;;24.10;12.50;;;12.50;61.10;;;;;;5054195;28;20723;-91
2022/03/27 03:20:12;;;;;;;19.13;11.30;;;12.40;61.50;;;;;;5055476;28;20232;-90
2022/03/27 03:22:42;;;;;;;22.87;11.63;;;12.40;61.70;;;;;;5057214;28;20230;-94
2022/03/27 03:25:10;;;;;;;21.13;12.40;;;12.40;62.30;;;;;;5038074;28;20205;-93
2022/03/27 03:27:37;;;;;;;24.00;12.47;;;12.40;62.50;;;;;;5055919;28;20219;-94
2022/03/27 03:30:06;;;;;;;25.53;12.93;;;12.40;62.80;;;;;;5056183;28;20253;-91
2022/03/27 03:32:34;;;;;;;28.40;12.63;;;12.40;63.20;;;;;;5054722;28;20592;-94
2022/03/27 03:35:02;;;;;;;32.97;14.83;;;12.40;63.20;;;;;;5057460;28;20212;-91
2022/03/27 03:37:30;;;;;;;27.00;12.90;;;12.30;63.50;;;;;;5050134;28;20700;-93
2022/03/27 03:40:07;;;;;;;24.93;13.20;;;12.40;63.90;;;;;;5055830;28;20707;-94
2022/03/27 03:42:35;;;;;;;24.37;12.83;;;12.40;64.70;;;;;;5050562;28;20648;-94
2022/03/27 03:45:05;;;;;;;22.30;12.00;;;12.40;64.10;;;;;;5055138;28;20304;-95
2022/03/27 03:47:35;;;;;;;26.83;13.00;;;12.40;64.50;;;;;;5056533;28;20223;-94
2022/03/27 03:50:05;;;;;;;22.27;12.87;;;12.40;65.00;;;;;;5057582;28;20231;-94
2022/03/27 03:52:33;;;;;;;29.57;14.47;;;12.40;65.10;;;;;;5054635;28;20571;-96
2022/03/27 03:55:00;;;;;;;20.00;12.27;;;12.40;64.80;;;;;;5058599;28;20215;-93
2022/03/27 03:57:32;;;;;;;33.43;14.73;;;12.40;65.00;;;;;;5058832;28;20204;-94
2022/03/27 04:00:04;;;;;;;29.57;12.80;;;12.40;65.90;;;;;;5060796;28;20254;-96
2022/03/27 04:02:31;;;;;;;26.87;14.43;;;12.50;65.80;;;;;;5057600;28;20203;-90
2022/03/27 04:05:00;;;;;;;29.03;14.07;;;12.50;65.60;;;;;;5053285;28;20294;-91
2022/03/27 04:07:28;;;;;;;29.73;14.57;;;12.50;65.70;;;;;;5044592;28;20236;-90
2022/03/27 04:09:55;;;;;;;22.50;12.27;;;12.60;65.80;;;;;;5049470;28;20322;-91
2022/03/27 04:12:22;;;;;;;25.67;13.83;;;12.60;66.90;;;;;;5051091;28;20234;-90
2022/03/27 04:14:51;;;;;;;24.73;12.90;;;12.60;66.20;;;;;;5052975;28;20200;-95
2022/03/27 04:17:18;;;;;;;21.63;12.50;;;12.60;66.90;;;;;;5045135;28;20204;-90
2022/03/27 04:19:47;;;;;;;33.27;14.03;;;12.60;66.70;;;;;;5050031;28;20691;-90
2022/03/27 04:22:14;;;;;;;25.30;13.80;;;12.70;67.20;;;;;;5052047;28;20258;-90
2022/03/27 04:24:41;;;;;;;22.17;11.83;;;12.70;67.40;;;;;;5052022;28;20781;-91
2022/03/27 04:27:08;;;;;;;29.90;15.07;;;12.70;67.50;;;;;;5052827;28;20246;-90
2022/03/27 04:29:35;;;;;;;25.90;13.23;;;12.70;67.60;;;;;;5054685;28;20727;-92
2022/03/27 04:32:04;;;;;;;23.63;12.53;;;12.70;67.90;;;;;;5054369;28;20276;-94
2022/03/27 04:34:31;;;;;;;26.00;14.37;;;12.70;68.60;;;;;;5053835;28;20257;-91
2022/03/27 04:37:03;;;;;;;22.77;12.00;;;12.70;68.50;;;;;;5055811;28;20302;-92
2022/03/27 04:39:33;;;;;;;21.90;12.07;;;12.70;69.10;;;;;;5051245;28;20215;-92
2022/03/27 04:42:02;;;;;;;25.60;13.07;;;12.80;69.20;;;;;;5053338;28;20200;-92
2022/03/27 04:44:29;;;;;;;24.70;13.23;;;12.80;69.20;;;;;;5053545;28;20544;-91
2022/03/27 04:46:56;;;;;;;16.87;11.53;;;12.90;69.30;;;;;;5055499;28;20227;-91
2022/03/27 04:49:25;;;;;;;20.43;11.70;;;12.80;69.20;;;;;;5052277;28;20664;-93
2022/03/27 04:51:52;;;;;;;21.17;12.43;;;12.80;69.90;;;;;;5054716;28;20208;-92
2022/03/27 04:54:19;;;;;;;21.10;11.97;;;12.90;69.60;;;;;;5054292;28;20216;-91
2022/03/27 04:56:48;;;;;;;23.17;11.90;;;12.90;69.70;;;;;;5054172;28;20691;-91
2022/03/27 04:59:15;;;;;;;21.07;11.83;;;13.00;70.20;;;;;;5053902;28;20342;-91
2022/03/27 05:01:42;;;;;;;21.33;11.47;;;13.00;69.70;;;;;;5040965;28;20201;-91
2022/03/27 05:04:10;;;;;;;26.40;12.87;;;13.00;69.60;;;;;;5039092;28;20203;-88
2022/03/27 05:06:38;;;;;;;21.37;12.03;;;13.10;70.20;;;;;;5053300;28;20724;-90
2022/03/27 05:09:05;;;;;;;26.67;12.60;;;13.00;71.50;;;;;;5051033;28;20208;-90
2022/03/27 05:11:32;;;;;;;20.20;10.40;;;13.00;70.40;;;;;;5053542;28;20311;-90
2022/03/27 05:13:59;;;;;;;21.20;11.23;;;13.10;71.30;;;;;;5052482;28;20196;-89
2022/03/27 05:16:26;;;;;;;18.43;10.77;;;13.00;70.70;;;;;;5053923;28;20279;-90
2022/03/27 05:18:54;;;;;;;21.57;11.67;;;13.10;70.90;;;;;;5053130;28;20212;-89
2022/03/27 05:21:23;;;;;;;27.13;11.87;;;13.10;71.00;;;;;;5053243;28;20242;-89
2022/03/27 05:23:51;;;;;;;23.63;11.03;;;13.10;70.90;;;;;;5057721;28;20252;-92
2022/03/27 05:26:18;;;;;;;15.80;9.53;;;13.10;71.60;;;;;;5057464;28;20247;-91
2022/03/27 05:28:48;;;;;;;19.63;10.43;;;13.10;71.30;;;;;;5054651;28;20220;-91
2022/03/27 05:31:16;;;;;;;19.10;9.77;;;13.10;71.70;;;;;;5053446;28;20977;-91
2022/03/27 05:33:43;;;;;;;21.53;10.93;;;13.10;71.30;;;;;;5052578;28;20224;-92
2022/03/27 05:36:11;;;;;;;21.20;11.40;;;13.20;71.70;;;;;;5050307;28;20239;-92
2022/03/27 05:38:38;;;;;;;18.43;10.37;;;13.20;72.00;;;;;;5053041;28;20210;-90
2022/03/27 05:41:09;;;;;;;19.40;10.23;;;13.10;72.10;;;;;;5054359;28;20243;-93
2022/03/27 05:43:37;;;;;;;18.50;10.30;;;13.10;72.50;;;;;;5054656;28;20193;-92
2022/03/27 05:46:06;;;;;;;22.23;11.17;;;13.20;72.30;;;;;;5052703;28;20196;-93
2022/03/27 05:48:36;;;;;;;17.13;10.13;;;13.20;73.40;;;;;;5051910;28;20278;-88
2022/03/27 05:51:04;;;;;;;18.57;10.67;;;13.10;73.10;;;;;;5050489;28;20192;-90
2022/03/27 05:53:31;;;;;;;19.83;10.73;;;13.10;72.70;;;;;;5050749;28;20207;-91
2022/03/27 05:55:59;;;;;;;21.73;10.83;;;13.10;73.10;;;;;;5054765;28;20207;-89
2022/03/27 05:58:27;;;;;;;19.23;11.37;;;13.10;72.80;;;;;;5052796;28;20208;-89
2022/03/27 06:00:59;;;;;;;18.80;10.47;;;13.10;73.50;;;;;;5052667;28;20742;-89
2022/03/27 06:03:26;;;;;;;19.63;10.50;;;13.10;74.00;;;;;;5050665;28;20210;-89
2022/03/27 06:05:53;;;;;;;26.57;12.27;;;13.10;73.20;;;;;;5058644;28;20192;-87
2022/03/27 06:08:21;;;;;;;19.20;10.60;;;13.20;73.70;;;;;;5057293;28;20258;-90
2022/03/27 06:10:49;;;;;;;16.37;9.40;;;13.10;73.80;;;;;;5056654;28;20247;-92
2022/03/27 06:13:17;;;;;;;20.13;10.93;;;13.20;74.30;;;;;;5051381;28;20225;-90
2022/03/27 06:15:46;;;;;;;18.90;10.13;;;13.20;74.90;;;;;;5052441;28;20188;-91
2022/03/27 06:18:13;;;;;;;27.60;12.63;;;13.20;74.90;;;;;;5050278;28;20272;-92
2022/03/27 06:20:41;;;;;;;21.80;11.50;;;13.20;74.70;;;;;;5059283;28;20283;-91
2022/03/27 06:23:08;;;;;;;17.30;11.20;;;13.20;75.30;;;;;;5044660;28;20233;-90
2022/03/27 06:25:38;;;;;;;19.53;10.77;;;13.20;74.90;;;;;;5042616;28;20556;-89
2022/03/27 06:28:12;;;;;;;21.60;11.00;;;13.20;75.10;;;;;;5056456;28;20208;-90
2022/03/27 06:30:42;;;;;;;25.13;12.77;;;13.30;76.70;;;;;;5055294;28;20251;-89
2022/03/27 06:33:15;;;;;;;19.00;10.57;;;13.30;75.50;;;;;;5062259;28;20195;-93
2022/03/27 06:35:42;;;;;;;18.77;10.70;;;13.30;76.50;;;;;;5064666;28;20290;-90
2022/03/27 06:38:09;;;;;;;27.00;13.10;;;13.30;75.50;;;;;;5054106;28;20691;-91
2022/03/27 06:40:37;;;;;;;22.27;11.77;;;13.30;75.80;;;;;;5058218;28;20238;-91
2022/03/27 06:43:04;;;;;;;23.33;11.63;;;13.30;76.10;;;;;;5052695;28;20196;-89
2022/03/27 06:45:31;;;;;;;24.30;12.70;;;13.30;76.30;;;;;;5055326;28;20224;-89
2022/03/27 06:47:58;;;;;;;24.80;12.77;;;13.40;76.30;;;;;;5054895;28;20221;-92
2022/03/27 06:50:27;;;;;;;20.90;11.10;;;13.30;76.20;;;;;;5040701;28;20288;-88
2022/03/27 06:52:55;;;;;;;24.33;12.83;;;13.30;77.00;;;;;;5037952;28;20224;-90
2022/03/27 06:55:22;;;;;;;29.50;12.67;;;13.30;77.10;;;;;;5045897;28;21175;-88
2022/03/27 06:57:50;;;;;;;21.30;10.73;;;13.40;77.40;;;;;;5048608;28;20201;-91
2022/03/27 07:03:06;;;;;;;22.63;11.43;;;13.40;77.60;;;;;;5066412;28;20218;-91
2022/03/27 07:05:37;;;;;;;24.13;11.40;;;13.40;77.80;;;;;;5054737;28;20208;-88
2022/03/27 07:08:05;;;;;;;26.50;11.43;;;13.40;78.00;;;;;;5054205;28;20239;-90
2022/03/27 07:10:36;;;;;;;20.83;10.83;;;13.40;78.10;;;;;;5056241;28;20287;-89
2022/03/27 07:13:08;;;;;;;18.30;10.23;;;13.40;78.20;;;;;;5055836;28;20288;-89
2022/03/27 07:15:36;;;;;;;22.17;11.80;;;13.40;79.00;;;;;;5048375;28;20692;-90
2022/03/27 07:18:03;;;;;;;22.93;11.53;;;13.40;78.00;;;;;;5055423;28;20251;-88
2022/03/27 07:20:37;;;;;;;38.60;14.87;;;13.40;78.20;;;;;;5035239;28;20612;-90
2022/03/27 07:23:13;;;;;;;25.97;11.60;;;13.40;79.50;;;;;;5057318;28;20219;-87
2022/03/27 07:25:42;;;;;;;26.00;13.23;;;13.40;80.10;;;;;;5054689;28;20715;-90
2022/03/27 07:28:11;;;;;;;26.53;11.53;;;13.40;78.90;;;;;;5054101;28;20247;-91
2022/03/27 07:30:40;;;;;;;22.23;10.87;;;13.40;79.00;;;;;;5057023;28;20249;-89
2022/03/27 07:33:08;;;;;;;23.60;11.57;;;13.40;78.80;;;;;;5055341;28;20212;-89
2022/03/27 07:35:38;;;;;;;23.73;11.87;;;13.40;78.90;;;;;;5052947;28;20297;-89
2022/03/27 07:38:10;;;;;;;16.40;9.63;;;13.50;80.50;;;;;;5055259;28;20201;-94
2022/03/27 07:40:37;;;;;;;25.57;12.07;;;13.50;79.70;;;;;;5058017;28;20236;-89
2022/03/27 07:43:05;;;;;;;18.47;11.07;;;13.50;79.70;;;;;;5053596;28;20205;-90
2022/03/27 07:45:35;;;;;;;19.53;10.20;;;13.60;79.80;;;;;;5056741;28;20665;-90
2022/03/27 07:48:04;;;;;;;15.30;9.63;;;13.60;79.90;;;;;;5072834;28;20237;-90
2022/03/27 07:50:32;;;;;;;22.03;11.17;;;13.60;80.00;;;;;;5068748;28;20208;-88
2022/03/27 07:53:01;;;;;;;20.77;9.37;;;13.60;79.80;;;;;;5037569;28;20624;-90
2022/03/27 07:55:28;;;;;;;24.87;12.10;;;13.60;80.30;;;;;;5043297;28;20689;-90
2022/03/27 07:57:55;;;;;;;17.93;10.00;;;13.70;79.70;;;;;;5049816;28;20203;-90
2022/03/27 08:00:22;;;;;;;21.47;10.47;;;13.60;79.50;;;;;;5050169;28;20283;-89
2022/03/27 08:02:51;;;;;;;16.40;9.57;;;13.60;79.50;;;;;;5049088;28;20275;-92
2022/03/27 08:05:18;;;;;;;30.97;12.47;;;13.60;79.80;;;;;;5048247;28;20204;-91
2022/03/27 08:07:45;;;;;;;31.30;13.43;;;13.70;79.60;;;;;;5043514;28;20203;-92
2022/03/27 08:10:15;;;;;;;21.80;11.33;;;13.70;79.50;;;;;;5049814;28;20941;-90
2022/03/27 08:12:42;;;;;;;22.53;11.47;;;13.70;81.10;;;;;;5050534;28;20642;-90
2022/03/27 08:15:11;;;;;;;32.57;12.83;;;13.70;79.70;;;;;;5046456;28;20204;-90
2022/03/27 08:17:39;;;;;;;22.40;10.53;;;13.70;80.20;;;;;;5050878;28;20285;-92
2022/03/27 08:20:08;;;;;;;17.10;10.33;;;13.70;79.50;;;;;;5047998;28;20307;-90
2022/03/27 08:22:36;;;;;;;20.10;10.50;;;13.70;79.90;;;;;;5048794;28;20208;-89
2022/03/27 08:25:04;;;;;;;18.80;9.53;;;13.70;80.50;;;;;;5050126;28;20236;-88
2022/03/27 08:27:33;;;;;;;19.13;9.73;;;13.70;80.20;;;;;;5039956;28;20248;-89
2022/03/27 08:30:00;;;;;;;21.10;10.27;;;13.70;80.80;;;;;;5036648;28;20239;-90
2022/03/27 08:32:28;;;;;;;19.97;10.27;;;13.70;79.90;;;;;;5051552;28;20951;-90
2022/03/27 08:34:55;;;;;;;16.70;9.50;;;13.70;80.40;;;;;;5049065;28;20641;-90
2022/03/27 08:37:22;;;;;;;19.17;10.27;;;13.80;80.30;;;;;;5053644;28;20284;-88
2022/03/27 08:39:50;;;;;;;18.13;9.60;;;13.80;80.20;;;;;;5051144;28;20732;-90
2022/03/27 08:42:20;;;;;;;20.00;10.83;;;13.80;80.50;;;;;;5043302;28;20205;-91
2022/03/27 08:44:52;;;;;;;18.30;10.63;;;13.80;81.10;;;;;;5053177;28;20202;-89
2022/03/27 08:47:24;;;;;;;35.43;14.47;;;13.80;81.40;;;;;;5050207;28;20337;-88
2022/03/27 08:50:00;;;;;;;31.17;12.87;;;13.90;81.30;;;;;;5052816;28;20715;-91
2022/03/27 08:52:40;;;;;;;26.00;12.40;;;13.90;81.30;;;;;;5049703;28;20201;-90
2022/03/27 08:55:09;;;;;;;20.20;10.77;;;13.90;81.50;;;;;;5050993;28;20232;-95
2022/03/27 08:58:04;;;;;;;23.07;11.20;;;13.90;81.10;;;;;;5047829;28;20234;-94
2022/03/27 09:00:39;;;;;;;28.07;13.43;;;14.00;82.30;;;;;;5045545;28;20287;-92
2022/03/27 09:03:09;;;;;;;20.27;10.07;;;14.00;81.60;;;;;;5052456;28;20191;-90
2022/03/27 09:05:37;;;;;;;27.27;11.70;;;14.00;81.30;;;;;;5050585;28;20323;-91
2022/03/27 09:08:09;;;;;;;19.43;10.77;;;14.10;80.50;;;;;;5052193;28;20243;-90
2022/03/27 09:10:37;;;;;;;22.30;11.57;;;14.10;81.00;;;;;;5042412;28;20621;-92
2022/03/27 09:13:11;;;;;;;19.33;11.43;;;14.10;80.20;;;;;;5050007;28;20643;-91
2022/03/27 09:15:39;;;;;;;21.30;11.33;;;14.20;81.00;;;;;;5051342;28;20725;-90
2022/03/27 09:18:08;;;;;;;25.00;11.83;;;14.20;80.00;;;;;;5047756;28;20371;-89
2022/03/27 09:20:44;;;;;;;24.87;12.17;;;14.20;80.80;;;;;;5048594;28;20192;-91
2022/03/27 09:23:31;;;;;;;21.07;11.83;;;14.30;81.30;;;;;;5049572;28;20800;-91
2022/03/27 09:26:00;;;;;;;20.53;11.27;;;14.30;81.10;;;;;;5047744;28;20201;-91
2022/03/27 09:28:33;;;;;;;33.43;15.17;;;14.30;79.70;;;;;;5042622;28;20649;-91
2022/03/27 09:31:04;;;;;;;33.57;14.97;;;14.40;81.40;;;;;;5040514;28;20216;-95
2022/03/27 09:33:48;;;;;;;31.23;13.90;;;14.40;80.10;;;;;;5041319;28;20865;-90
2022/03/27 09:36:22;;;;;;;20.90;10.97;;;14.40;80.50;;;;;;5050600;28;20206;-89
2022/03/27 09:39:01;;;;;;;24.37;12.27;;;14.40;79.40;;;;;;5048927;28;20278;-88
2022/03/27 09:41:38;;;;;;;20.07;10.53;;;14.40;80.60;;;;;;5037116;28;20289;-89
2022/03/27 09:44:07;;;;;;;18.30;10.70;;;14.40;80.70;;;;;;5049836;28;20247;-88
2022/03/27 09:46:57;;;;;;;25.50;12.43;;;14.40;79.30;;;;;;5048200;28;20664;-88
2022/03/27 09:49:38;;;;;;;20.70;11.33;;;14.40;80.70;;;;;;5049673;28;20217;-88
2022/03/27 09:52:08;;;;;;;22.77;11.87;;;14.40;79.40;;;;;;5049834;28;20208;-88
2022/03/27 09:54:53;;;;;;;23.83;11.27;;;14.40;80.00;;;;;;5050733;28;20284;-87
2022/03/27 09:57:22;;;;;;;23.93;11.83;;;14.30;80.70;;;;;;5043999;28;20208;-89
2022/03/27 09:59:49;;;;;;;30.83;13.47;;;14.30;79.70;;;;;;5049083;28;20332;-89
2022/03/27 10:02:22;;;;;;;25.73;12.20;;;14.30;80.60;;;;;;5048270;28;20285;-88
2022/03/27 10:04:53;;;;;;;30.20;13.17;;;14.30;80.40;;;;;;5046796;28;20210;-89
2022/03/27 10:07:22;;;;;;;37.83;16.27;;;14.30;80.90;;;;;;5043332;28;20283;-89
2022/03/27 10:09:51;;;;;;;26.67;13.10;;;14.30;80.20;;;;;;5049225;28;20233;-89
2022/03/27 10:12:19;;;;;;;22.97;11.53;;;14.30;80.50;;;;;;5046144;28;20225;-89
2022/03/27 10:14:47;;;;;;;21.90;11.37;;;14.30;80.70;;;;;;5051690;28;20186;-88
2022/03/27 10:17:15;;;;;;;17.67;10.37;;;14.30;80.90;;;;;;5049504;28;20234;-88
2022/03/27 10:19:50;;;;;;;25.47;12.30;;;14.30;80.90;;;;;;5058799;28;20223;-89
2022/03/27 10:22:21;;;;;;;24.00;13.43;;;14.30;81.70;;;;;;5043410;28;20279;-88
2022/03/27 10:24:51;;;;;;;20.93;12.00;;;14.30;81.70;;;;;;5028522;28;20276;-90
2022/03/27 10:27:19;;;;;;;26.40;13.90;;;14.30;82.40;;;;;;5043801;28;20705;-88
2022/03/27 10:29:47;;;;;;;25.63;12.90;;;14.30;81.60;;;;;;5048393;28;20319;-88
2022/03/27 10:32:15;;;;;;;19.53;12.30;;;14.30;81.70;;;;;;5049014;28;20210;-89
2022/03/27 10:34:49;;;;;;;23.93;12.60;;;14.40;82.20;;;;;;5049832;28;20301;-89
2022/03/27 10:37:26;;;;;;;19.57;11.27;;;14.40;83.50;;;;;;5049937;28;20231;-88
2022/03/27 10:40:00;;;;;;;20.67;11.70;;;14.40;83.10;;;;;;5049922;28;20240;-88
2022/03/27 10:42:39;;;;;;;18.03;12.30;;;14.40;83.20;;;;;;5048418;28;20202;-88
2022/03/27 10:45:09;;;;;;;19.63;12.90;;;14.50;83.30;;;;;;5049675;28;20239;-88
2022/03/27 10:47:39;;;;;;;18.53;12.30;;;14.50;82.70;;;;;;5052893;28;20196;-88
2022/03/27 10:50:24;;;;;;;18.63;11.03;;;14.50;83.00;;;;;;5048140;28;20234;-88
2022/03/27 10:53:10;;;;;;;21.53;12.37;;;14.60;83.40;;;;;;5037388;28;20650;-90
2022/03/27 10:55:39;;;;;;;20.77;12.93;;;14.60;82.70;;;;;;5051965;28;20279;-89
2022/03/27 10:58:28;;;;;;;22.50;13.57;;;14.60;81.90;;;;;;5052201;28;20212;-90
2022/03/27 11:00:57;;;;;;;21.37;12.57;;;14.60;82.30;;;;;;5040396;28;20571;-87
2022/03/27 11:03:51;;;;;;;17.70;11.93;;;14.70;81.30;;;;;;5054139;28;20252;-89
2022/03/27 11:06:25;;;;;;;22.80;13.13;;;14.70;82.20;;;;;;5039954;28;20561;-88
2022/03/27 11:08:53;;;;;;;24.17;14.03;;;14.80;81.60;;;;;;5055125;28;20235;-89
2022/03/27 11:12:02;;;;;;;20.13;13.63;;;14.80;80.60;;;;;;5049015;28;20209;-89
2022/03/27 11:14:57;;;;;;;19.33;12.87;;;14.80;82.10;;;;;;5043581;28;20196;-89
2022/03/27 11:17:44;;;;;;;21.93;13.67;;;14.90;81.60;;;;;;5048574;28;20693;-89
2022/03/27 11:20:28;;;;;;;23.07;14.30;;;14.90;81.70;;;;;;5048877;28;20729;-90
2022/03/27 11:22:59;;;;;;;20.47;13.37;;;15.00;80.70;;;;;;5057488;28;20328;-91
2022/03/27 11:25:28;;;;;;;22.23;13.80;;;15.00;80.30;;;;;;5053595;28;20281;-90
2022/03/27 11:27:57;;;;;;;19.90;12.63;;;15.00;80.30;;;;;;5052086;28;20226;-90
2022/03/27 11:30:24;;;;;;;20.00;13.07;;;15.10;79.90;;;;;;5054482;28;20231;-89
2022/03/27 11:33:18;;;;;;;30.07;15.10;;;15.10;79.50;;;;;;5051842;28;20238;-90
2022/03/27 11:36:18;;;;;;;23.40;13.77;;;15.10;80.20;;;;;;5053803;28;20211;-90
2022/03/27 11:39:07;;;;;;;19.60;12.37;;;15.20;79.70;;;;;;5057865;28;20216;-88
2022/03/27 11:41:42;;;;;;;20.10;13.20;;;15.20;79.50;;;;;;5050810;28;20202;-92
2022/03/27 11:47:35;;;;;;;17.97;12.67;;;15.30;79.50;;;;;;5020646;28;20196;-90
2022/03/27 11:50:03;;;;;;;18.53;12.27;;;15.30;79.30;;;;;;5055574;28;20291;-90
2022/03/27 11:52:34;;;;;;;21.60;12.47;;;15.40;78.50;;;;;;5058143;28;20346;-89
2022/03/27 11:55:08;;;;;;;15.40;10.83;;;15.40;78.50;;;;;;5060154;28;20209;-91
2022/03/27 11:57:46;;;;;;;15.53;11.00;;;15.50;78.20;;;;;;5059086;28;20880;-91
2022/03/27 12:00:15;;;;;;;19.63;12.80;;;15.50;77.90;;;;;;5057906;28;20242;-91
2022/03/27 12:02:50;;;;;;;17.30;12.03;;;15.50;77.20;;;;;;5061021;28;20202;-89
2022/03/27 12:05:32;;;;;;;24.53;13.50;;;15.60;77.20;;;;;;5063336;28;20641;-86
2022/03/27 12:07:59;;;;;;;17.47;12.20;;;15.60;76.70;;;;;;5060840;28;20232;-87
2022/03/27 12:10:40;;;;;;;25.50;14.07;;;15.60;76.10;;;;;;5062732;28;20246;-89
2022/03/27 12:13:11;;;;;;;17.73;11.53;;;15.60;76.10;;;;;;5056197;28;20190;-89
2022/03/27 12:15:45;;;;;;;20.10;11.83;;;15.60;75.80;;;;;;5052857;28;20343;-87
2022/03/27 12:18:14;;;;;;;20.73;13.00;;;15.70;75.60;;;;;;5079479;28;20202;-89
2022/03/27 12:20:45;;;;;;;23.63;13.83;;;15.70;75.50;;;;;;5070126;28;20215;-89
2022/03/27 12:23:24;;;;;;;20.83;13.27;;;15.70;75.30;;;;;;5055091;28;20214;-88
2022/03/27 12:29:40;;;;;;;23.53;13.47;;;15.70;75.50;;;;;;5054301;28;20662;-88
2022/03/27 12:32:07;;;;;;;24.90;14.30;;;15.70;75.40;;;;;;5033563;28;20204;-89
2022/03/27 12:34:35;;;;;;;22.10;14.30;;;15.70;75.50;;;;;;5044751;28;20249;-88
2022/03/27 12:37:14;;;;;;;28.03;15.57;;;15.70;75.50;;;;;;5052955;28;20215;-89
2022/03/27 12:39:58;;;;;;;21.63;13.93;;;15.70;75.40;;;;;;5051831;28;20886;-89
2022/03/27 12:42:46;;;;;;;21.90;14.17;;;15.70;75.50;;;;;;5053718;28;20238;-88
2022/03/27 12:45:17;;;;;;;24.03;14.83;;;15.70;76.00;;;;;;5053266;28;20211;-91
2022/03/27 12:47:51;;;;;;;22.67;13.57;;;15.80;75.70;;;;;;5049190;28;20653;-88
2022/03/27 12:50:32;;;;;;;25.73;14.83;;;15.80;75.90;;;;;;5048169;28;20338;-88
2022/03/27 12:53:07;;;;;;;22.13;13.50;;;15.80;75.70;;;;;;5051140;28;20199;-87
2022/03/27 12:55:46;;;;;;;23.67;14.77;;;15.90;75.50;;;;;;5051139;28;20744;-88
2022/03/27 12:58:20;;;;;;;21.10;13.30;;;15.90;75.00;;;;;;5048285;28;20283;-86